createdAt,value
2023-02-26T00:01:56.017Z,1.52
2023-02-26T00:04:23.840Z,1.59
2023-02-26T00:06:58.094Z,1.45
2023-02-26T00:09:27.015Z,1.58
2023-02-26T00:11:55.698Z,1.56
2023-02-26T00:14:25.849Z,1.57
2023-02-26T00:16:59.411Z,1.52
2023-02-26T00:19:27.586Z,1.54
2023-02-26T00:21:55.949Z,1.48
2023-02-26T00:24:23.760Z,1.49
2023-02-26T00:26:51.611Z,1.50
2023-02-26T00:29:20.198Z,1.47
2023-02-26T00:31:50.219Z,1.37
2023-02-26T00:34:18.667Z,1.37
2023-02-26T00:36:50.945Z,1.54
2023-02-26T00:39:33.616Z,1.57
2023-02-26T00:42:02.019Z,1.46
2023-02-26T00:44:30.407Z,1.57
2023-02-26T00:47:04.433Z,1.52
2023-02-26T00:49:44.756Z,1.55
2023-02-26T00:52:16.016Z,1.54
2023-02-26T00:54:43.860Z,1.44
2023-02-26T00:57:11.629Z,1.59
2023-02-26T00:59:39.560Z,1.58
2023-02-26T01:02:08.713Z,1.44
2023-02-26T01:04:37.844Z,1.49
2023-02-26T01:07:05.942Z,1.51
2023-02-26T01:09:36.093Z,1.45
2023-02-26T01:12:07.747Z,1.51
2023-02-26T01:14:36.549Z,1.32
2023-02-26T01:17:07.873Z,1.27
2023-02-26T01:19:42.917Z,1.25
2023-02-26T01:22:14.283Z,1.15
2023-02-26T01:24:43.160Z,1.08
2023-02-26T01:27:11.336Z,0.92
2023-02-26T01:29:39.506Z,0.96
2023-02-26T01:32:10.245Z,0.84
2023-02-26T01:34:43.357Z,0.78
2023-02-26T01:37:23.274Z,0.82
2023-02-26T01:40:08.193Z,0.77
2023-02-26T01:42:37.478Z,0.69
2023-02-26T01:45:12.432Z,0.73
2023-02-26T01:47:44.427Z,0.71
2023-02-26T01:50:18.964Z,0.73
2023-02-26T01:53:22.811Z,0.75
2023-02-26T01:55:54.000Z,0.61
2023-02-26T01:58:22.472Z,0.67
2023-02-26T02:00:52.107Z,0.67
2023-02-26T02:03:20.773Z,0.66
2023-02-26T02:05:52.753Z,0.68
2023-02-26T02:08:21.481Z,0.70
2023-02-26T02:10:52.380Z,0.63
2023-02-26T02:13:29.189Z,0.71
2023-02-26T02:16:01.606Z,0.65
2023-02-26T02:18:38.846Z,0.69
2023-02-26T02:21:34.224Z,0.74
2023-02-26T02:24:08.978Z,0.76
2023-02-26T02:26:46.389Z,0.84
2023-02-26T02:29:37.240Z,0.79
2023-02-26T02:32:08.377Z,0.73
2023-02-26T02:34:39.269Z,0.82
2023-02-26T02:37:13.616Z,0.79
2023-02-26T02:39:44.789Z,0.70
2023-02-26T02:42:21.236Z,0.66
2023-02-26T02:44:52.847Z,0.72
2023-02-26T02:47:24.017Z,0.73
2023-02-26T02:49:55.376Z,0.65
2023-02-26T02:52:27.135Z,0.71
2023-02-26T02:54:57.750Z,0.69
2023-02-26T02:57:29.826Z,0.60
2023-02-26T02:59:59.903Z,0.57
2023-02-26T03:02:33.486Z,0.58
2023-02-26T03:05:01.421Z,0.60
2023-02-26T03:07:32.442Z,0.60
2023-02-26T03:10:00.424Z,0.67
2023-02-26T03:12:32.109Z,0.78
2023-02-26T03:15:00.595Z,0.82
2023-02-26T03:17:34.053Z,0.89
2023-02-26T03:20:10.723Z,0.94
2023-02-26T03:22:44.708Z,0.90
2023-02-26T03:25:20.472Z,0.84
2023-02-26T03:28:00.353Z,0.85
2023-02-26T03:30:34.631Z,0.76
2023-02-26T03:33:05.920Z,0.80
2023-02-26T03:35:37.488Z,0.77
2023-02-26T03:38:09.004Z,0.80
2023-02-26T03:40:39.245Z,0.72
2023-02-26T03:43:13.713Z,0.66
2023-02-26T03:45:42.624Z,0.63
2023-02-26T03:48:14.820Z,0.58
2023-02-26T03:50:46.033Z,0.63
2023-02-26T03:53:39.991Z,0.47
2023-02-26T03:56:19.163Z,0.49
2023-02-26T03:59:10.134Z,0.45
2023-02-26T04:01:50.462Z,0.45
2023-02-26T04:04:24.876Z,0.34
2023-02-26T04:06:53.770Z,0.38
2023-02-26T04:09:22.665Z,0.33
2023-02-26T04:11:51.355Z,0.32
2023-02-26T04:14:19.579Z,0.40
2023-02-26T04:16:47.724Z,0.38
2023-02-26T04:19:15.575Z,0.28
2023-02-26T04:21:46.452Z,0.34
2023-02-26T04:24:16.543Z,0.32
2023-02-26T04:26:45.535Z,0.33
2023-02-26T04:29:13.711Z,0.34
2023-02-26T04:31:41.717Z,0.39
2023-02-26T04:34:09.677Z,0.29
2023-02-26T04:36:37.558Z,0.36
2023-02-26T04:39:06.976Z,0.22
2023-02-26T04:41:35.783Z,0.20
2023-02-26T04:44:04.000Z,0.14
2023-02-26T04:46:33.433Z,0.29
2023-02-26T04:49:16.522Z,0.22
2023-02-26T04:51:46.052Z,0.27
2023-02-26T04:54:17.974Z,0.31
2023-02-26T04:56:47.995Z,0.17
2023-02-26T04:59:16.996Z,0.14
2023-02-26T05:01:45.064Z,0.23
2023-02-26T05:04:12.994Z,0.20
2023-02-26T05:06:43.013Z,0.25
2023-02-26T05:09:10.982Z,0.25
2023-02-26T05:11:43.960Z,0.21
2023-02-26T05:14:13.519Z,0.18
2023-02-26T05:16:42.404Z,0.25
2023-02-26T05:19:10.713Z,0.19
2023-02-26T05:21:39.095Z,0.19
2023-02-26T05:24:07.579Z,0.22
2023-02-26T05:26:35.461Z,0.21
2023-02-26T05:29:05.220Z,0.35
2023-02-26T05:31:33.148Z,0.30
2023-02-26T05:34:01.052Z,0.28
2023-02-26T05:36:29.082Z,0.20
2023-02-26T05:38:56.979Z,0.11
2023-02-26T05:41:24.982Z,0.09
2023-02-26T05:43:52.896Z,0.12
2023-02-26T05:46:22.177Z,0.20
2023-02-26T05:48:50.088Z,0.24
2023-02-26T05:51:17.937Z,0.11
2023-02-26T05:53:46.650Z,0.08
2023-02-26T05:56:15.866Z,0.10
2023-02-26T05:58:44.793Z,0.18
2023-02-26T06:01:12.682Z,0.10
2023-02-26T06:03:44.258Z,0.28
2023-02-26T06:06:12.369Z,0.25
2023-02-26T06:08:40.399Z,0.15
2023-02-26T06:11:08.424Z,0.17
2023-02-26T06:13:36.299Z,0.06
2023-02-26T06:16:04.433Z,0.14
2023-02-26T06:18:33.736Z,0.16
2023-02-26T06:21:03.203Z,0.17
2023-02-26T06:23:31.084Z,0.14
2023-02-26T06:25:59.934Z,0.17
2023-02-26T06:28:28.013Z,0.11
2023-02-26T06:30:56.357Z,0.17
2023-02-26T06:33:24.629Z,0.19
2023-02-26T06:35:52.969Z,0.20
2023-02-26T06:38:22.195Z,0.31
2023-02-26T06:40:50.169Z,0.26
2023-02-26T06:43:18.180Z,0.46
2023-02-26T06:45:46.442Z,0.46
2023-02-26T06:48:14.476Z,0.43
2023-02-26T06:50:42.498Z,0.29
2023-02-26T06:53:10.392Z,0.39
2023-02-26T06:55:44.664Z,0.52
2023-02-26T06:58:12.846Z,0.41
2023-02-26T07:00:41.589Z,0.59
2023-02-26T07:03:11.604Z,0.66
2023-02-26T07:05:39.546Z,0.72
2023-02-26T07:08:07.430Z,0.80
2023-02-26T07:10:36.614Z,0.66
2023-02-26T07:13:05.860Z,0.69
2023-02-26T07:15:33.997Z,0.81
2023-02-26T07:18:01.862Z,0.84
2023-02-26T07:20:30.656Z,0.98
2023-02-26T07:22:58.651Z,1.02
2023-02-26T07:25:26.802Z,1.08
2023-02-26T07:27:54.870Z,1.13
2023-02-26T07:30:24.123Z,1.18
2023-02-26T07:32:52.342Z,1.30
2023-02-26T07:35:20.481Z,1.34
2023-02-26T07:37:48.413Z,1.37
2023-02-26T07:40:16.648Z,1.45
2023-02-26T07:42:44.579Z,1.46
2023-02-26T07:45:13.101Z,1.55
2023-02-26T07:47:42.769Z,1.70
2023-02-26T07:50:12.323Z,1.65
2023-02-26T07:52:40.248Z,1.86
2023-02-26T07:55:09.065Z,1.83
2023-02-26T07:57:36.959Z,1.88
2023-02-26T08:00:09.454Z,2.02
2023-02-26T08:02:40.093Z,2.04
2023-02-26T08:05:09.868Z,2.00
2023-02-26T08:07:38.215Z,1.98
2023-02-26T08:10:07.061Z,2.04
2023-02-26T08:12:34.942Z,2.09
2023-02-26T08:15:02.864Z,2.37
2023-02-26T08:17:30.764Z,2.42
2023-02-26T08:19:58.719Z,2.31
2023-02-26T08:22:27.992Z,2.44
2023-02-26T08:24:55.901Z,2.44
2023-02-26T08:27:24.105Z,2.44
2023-02-26T08:29:52.092Z,2.30
2023-02-26T08:32:23.016Z,2.42
2023-02-26T08:34:51.145Z,2.45
2023-02-26T08:37:21.897Z,2.40
2023-02-26T08:39:51.206Z,2.53
2023-02-26T08:42:20.512Z,2.53
2023-02-26T08:44:48.935Z,2.51
2023-02-26T08:47:24.529Z,2.61
2023-02-26T08:49:56.306Z,2.53
2023-02-26T08:52:24.265Z,2.71
2023-02-26T08:54:53.463Z,2.90
2023-02-26T08:57:21.312Z,2.88
2023-02-26T08:59:49.248Z,2.73
2023-02-26T09:02:17.258Z,2.59
2023-02-26T09:04:45.226Z,2.72
2023-02-26T09:07:13.081Z,2.67
2023-02-26T09:09:40.978Z,2.68
2023-02-26T09:12:10.308Z,2.55
2023-02-26T09:14:38.172Z,2.50
2023-02-26T09:17:06.058Z,2.77
2023-02-26T09:19:33.993Z,2.97
2023-02-26T09:22:01.821Z,3.11
2023-02-26T09:24:29.795Z,3.24
2023-02-26T09:26:57.831Z,3.13
2023-02-26T09:29:27.226Z,3.28
2023-02-26T09:31:55.764Z,3.51
2023-02-26T09:34:23.684Z,3.66
2023-02-26T09:36:51.588Z,3.39
2023-02-26T09:39:19.420Z,3.08
2023-02-26T09:41:49.269Z,2.94
2023-02-26T09:44:22.211Z,2.82
2023-02-26T09:46:56.472Z,2.73
2023-02-26T09:49:32.469Z,2.89
2023-02-26T09:52:03.319Z,2.79
2023-02-26T09:54:33.660Z,2.71
2023-02-26T09:57:02.565Z,2.69
2023-02-26T09:59:35.848Z,2.83
2023-02-26T10:02:08.915Z,2.80
2023-02-26T10:04:49.588Z,2.73
2023-02-26T10:07:25.216Z,2.69
2023-02-26T10:10:04.896Z,2.70
2023-02-26T10:12:36.399Z,2.85
2023-02-26T10:15:09.615Z,3.31
2023-02-26T10:17:48.750Z,3.66
2023-02-26T10:20:21.050Z,4.07
2023-02-26T10:22:57.493Z,3.90
2023-02-26T10:25:27.651Z,3.72
2023-02-26T10:28:00.532Z,3.85
2023-02-26T10:30:35.733Z,3.82
2023-02-26T10:33:11.482Z,3.36
2023-02-26T10:35:44.513Z,3.50
2023-02-26T10:38:13.361Z,4.25
2023-02-26T10:40:45.248Z,4.08
2023-02-26T10:43:17.776Z,3.88
2023-02-26T10:45:55.111Z,4.00
2023-02-26T10:48:42.017Z,3.88
2023-02-26T10:51:14.009Z,3.75
2023-02-26T10:53:44.646Z,3.91
2023-02-26T10:56:16.684Z,4.70
2023-02-26T10:58:44.726Z,4.99
2023-02-26T11:01:16.241Z,4.90
2023-02-26T11:03:46.709Z,4.50
2023-02-26T11:06:19.616Z,4.32
2023-02-26T11:08:50.573Z,4.17
2023-02-26T11:11:36.767Z,4.02
2023-02-26T11:14:04.995Z,3.91
2023-02-26T11:16:33.510Z,3.65
2023-02-26T11:19:02.947Z,3.56
2023-02-26T11:21:36.336Z,4.81
2023-02-26T11:24:09.875Z,5.85
2023-02-26T11:26:39.118Z,4.89
2023-02-26T11:29:07.407Z,4.27
2023-02-26T11:31:35.348Z,4.12
2023-02-26T11:34:06.956Z,3.83
2023-02-26T11:36:35.439Z,3.63
2023-02-26T11:39:06.657Z,3.75
2023-02-26T11:41:37.762Z,4.73
2023-02-26T11:44:08.316Z,5.32
2023-02-26T11:46:41.876Z,5.52
2023-02-26T11:49:11.462Z,4.98
2023-02-26T11:51:44.006Z,4.35
2023-02-26T11:54:22.363Z,4.29
2023-02-26T11:56:50.339Z,4.16
2023-02-26T11:59:20.215Z,4.00
2023-02-26T12:01:48.971Z,3.98
2023-02-26T12:04:20.712Z,4.05
2023-02-26T12:06:50.439Z,4.22
2023-02-26T12:09:18.868Z,4.09
2023-02-26T12:12:01.103Z,4.14
2023-02-26T12:15:09.934Z,4.18
2023-02-26T12:17:50.213Z,4.04
2023-02-26T12:20:22.417Z,4.37
2023-02-26T12:22:55.422Z,4.53
2023-02-26T12:25:33.522Z,4.49
2023-02-26T12:28:11.692Z,3.95
2023-02-26T12:31:01.490Z,3.69
2023-02-26T12:33:39.519Z,3.76
2023-02-26T12:36:17.723Z,4.39
2023-02-26T12:38:51.480Z,4.41
2023-02-26T12:41:45.341Z,4.37
2023-02-26T12:44:25.070Z,4.41
2023-02-26T12:47:11.852Z,4.65
2023-02-26T12:50:15.521Z,5.61
2023-02-26T12:52:55.304Z,5.40
2023-02-26T12:55:32.023Z,5.12
2023-02-26T12:58:22.094Z,4.71
2023-02-26T13:01:09.063Z,5.13
2023-02-26T13:03:58.910Z,5.41
2023-02-26T13:06:53.492Z,5.07
2023-02-26T13:09:34.740Z,4.75
2023-02-26T13:12:15.505Z,4.12
2023-02-26T13:14:52.350Z,3.95
2023-02-26T13:17:27.423Z,4.44
2023-02-26T13:20:00.355Z,5.15
2023-02-26T13:22:29.404Z,5.61
2023-02-26T13:25:03.537Z,6.46
2023-02-26T13:27:34.147Z,6.38
2023-02-26T13:30:21.727Z,5.71
2023-02-26T13:32:52.394Z,4.86
2023-02-26T13:35:23.404Z,5.37
2023-02-26T13:37:53.460Z,6.69
2023-02-26T13:40:47.201Z,7.34
2023-02-26T13:43:30.280Z,7.74
2023-02-26T13:46:07.895Z,7.60
2023-02-26T13:48:42.528Z,8.01
2023-02-26T13:51:14.008Z,8.51
2023-02-26T13:53:53.581Z,8.48
2023-02-26T13:56:39.571Z,8.57
2023-02-26T13:59:26.885Z,9.34
2023-02-26T14:01:57.013Z,7.79
2023-02-26T14:04:26.927Z,6.86
2023-02-26T14:06:56.118Z,7.25
2023-02-26T14:09:48.515Z,7.65
2023-02-26T14:12:42.148Z,8.24
2023-02-26T14:15:33.051Z,9.20
2023-02-26T14:18:07.182Z,9.60
2023-02-26T14:20:36.715Z,8.49
2023-02-26T14:23:34.199Z,9.31
2023-02-26T14:26:06.520Z,10.07
2023-02-26T14:28:43.814Z,10.12
2023-02-26T14:31:19.813Z,10.70
2023-02-26T14:33:59.361Z,10.78
2023-02-26T14:36:33.496Z,9.67
2023-02-26T14:39:04.456Z,10.13
2023-02-26T14:41:34.342Z,8.81
2023-02-26T14:44:07.526Z,9.05
2023-02-26T14:46:36.222Z,9.41
2023-02-26T14:49:05.097Z,9.51
2023-02-26T14:51:40.699Z,9.34
2023-02-26T14:54:30.212Z,10.24
2023-02-26T14:57:04.047Z,10.47
2023-02-26T14:59:48.347Z,10.88
2023-02-26T15:02:27.517Z,11.21
2023-02-26T15:05:23.040Z,10.99
2023-02-26T15:08:06.849Z,12.05
2023-02-26T15:10:44.810Z,11.60
2023-02-26T15:13:38.854Z,11.53
2023-02-26T15:16:14.053Z,10.98
2023-02-26T15:18:57.671Z,10.15
2023-02-26T15:21:33.931Z,11.25
2023-02-26T15:24:02.164Z,10.96
2023-02-26T15:26:33.477Z,10.65
2023-02-26T15:29:04.439Z,10.16
2023-02-26T15:31:37.059Z,10.18
2023-02-26T15:34:05.200Z,10.22
2023-02-26T15:36:33.512Z,11.10
2023-02-26T15:39:03.949Z,10.74
2023-02-26T15:41:32.897Z,10.25
2023-02-26T15:44:03.561Z,9.80
2023-02-26T15:46:36.023Z,8.98
2023-02-26T15:49:07.830Z,8.94
2023-02-26T15:51:36.064Z,9.76
2023-02-26T15:54:04.871Z,10.30
2023-02-26T15:56:36.722Z,9.76
2023-02-26T15:59:08.750Z,9.76
2023-02-26T16:01:38.002Z,9.29
2023-02-26T16:04:08.789Z,9.39
2023-02-26T16:06:37.834Z,8.72
2023-02-26T16:09:07.202Z,8.43
2023-02-26T16:11:37.138Z,7.64
2023-02-26T16:14:06.392Z,6.61
2023-02-26T16:16:40.756Z,5.84
2023-02-26T16:19:10.863Z,5.55
2023-02-26T16:21:40.802Z,5.23
2023-02-26T16:24:14.944Z,4.86
2023-02-26T16:26:46.341Z,4.81
2023-02-26T16:29:16.748Z,4.60
2023-02-26T16:31:47.493Z,4.34
2023-02-26T16:34:30.337Z,4.24
2023-02-26T16:36:58.277Z,3.94
2023-02-26T16:39:28.159Z,3.79
2023-02-26T16:42:04.021Z,3.60
2023-02-26T16:44:44.821Z,3.44
2023-02-26T16:47:14.241Z,3.39
2023-02-26T16:49:43.556Z,3.29
2023-02-26T16:52:17.169Z,3.14
2023-02-26T16:54:51.158Z,3.03
2023-02-26T16:57:21.711Z,2.96
2023-02-26T16:59:53.739Z,2.87
2023-02-26T17:02:24.794Z,2.71
2023-02-26T17:04:55.220Z,2.60
2023-02-26T17:07:27.489Z,2.61
2023-02-26T17:09:58.827Z,2.64
2023-02-26T17:12:40.770Z,2.44
2023-02-26T17:15:19.036Z,2.36
2023-02-26T17:17:48.629Z,2.22
2023-02-26T17:20:17.284Z,2.20
2023-02-26T17:22:45.879Z,2.18
2023-02-26T17:25:18.451Z,2.15
2023-02-26T17:27:47.422Z,2.05
2023-02-26T17:30:17.550Z,2.03
2023-02-26T17:32:45.678Z,1.85
2023-02-26T17:35:16.160Z,1.78
2023-02-26T17:37:44.992Z,1.79
2023-02-26T17:40:20.176Z,1.76
2023-02-26T17:42:48.038Z,1.68
2023-02-26T17:45:16.767Z,1.73
2023-02-26T17:47:47.383Z,1.78
2023-02-26T17:50:23.871Z,1.72
2023-02-26T17:52:51.774Z,1.61
2023-02-26T17:55:19.554Z,1.66
2023-02-26T17:57:47.608Z,1.49
2023-02-26T18:00:17.261Z,1.53
2023-02-26T18:02:45.728Z,1.50
2023-02-26T18:05:13.620Z,1.55
2023-02-26T18:07:42.844Z,1.55
2023-02-26T18:10:17.765Z,1.61
2023-02-26T18:12:45.689Z,1.66
2023-02-26T18:15:13.996Z,1.71
2023-02-26T18:17:41.927Z,1.76
2023-02-26T18:20:17.480Z,1.81
2023-02-26T18:22:48.129Z,1.74
2023-02-26T18:25:16.728Z,1.82
2023-02-26T18:27:44.966Z,1.71
2023-02-26T18:30:23.189Z,1.70
2023-02-26T18:32:51.233Z,1.66
2023-02-26T18:35:19.164Z,1.84
2023-02-26T18:37:48.382Z,1.86
2023-02-26T18:40:17.817Z,1.91
2023-02-26T18:42:46.333Z,1.91
2023-02-26T18:45:14.226Z,1.86
2023-02-26T18:47:42.371Z,1.97
2023-02-26T18:50:13.917Z,1.99
2023-02-26T18:52:41.903Z,1.88
2023-02-26T18:55:12.160Z,2.02
2023-02-26T18:57:42.413Z,2.11
2023-02-26T19:00:14.035Z,2.00
2023-02-26T19:02:44.468Z,2.00
2023-02-26T19:05:13.278Z,1.99
2023-02-26T19:07:42.851Z,1.95
2023-02-26T19:10:15.142Z,1.94
2023-02-26T19:12:44.849Z,1.99
2023-02-26T19:15:13.788Z,1.94
2023-02-26T19:17:42.080Z,1.94
2023-02-26T19:20:12.011Z,1.87
2023-02-26T19:22:41.917Z,1.94
2023-02-26T19:25:10.735Z,1.99
2023-02-26T19:27:40.025Z,2.02
2023-02-26T19:30:09.183Z,1.98
2023-02-26T19:32:37.264Z,1.87
2023-02-26T19:35:06.560Z,1.85
2023-02-26T19:37:34.611Z,1.89
2023-02-26T19:40:05.941Z,1.83
2023-02-26T19:42:33.832Z,1.94
2023-02-26T19:45:03.084Z,1.84
2023-02-26T19:47:30.939Z,1.92
2023-02-26T19:49:58.918Z,1.91
2023-02-26T19:52:28.162Z,1.89
2023-02-26T19:54:56.154Z,1.81
2023-02-26T19:57:24.016Z,1.85
2023-02-26T19:59:51.889Z,1.90
2023-02-26T20:02:21.205Z,1.98
2023-02-26T20:04:49.428Z,2.01
2023-02-26T20:07:17.308Z,1.92
2023-02-26T20:09:45.214Z,1.98
2023-02-26T20:12:13.043Z,1.88
2023-02-26T20:14:40.893Z,2.01
2023-02-26T20:17:08.820Z,1.88
2023-02-26T20:19:38.208Z,1.89
2023-02-26T20:22:06.262Z,1.94
2023-02-26T20:24:34.168Z,1.89
2023-02-26T20:27:01.995Z,1.93
2023-02-26T20:29:29.844Z,1.86
2023-02-26T20:31:59.138Z,1.83
2023-02-26T20:34:27.215Z,1.94
2023-02-26T20:36:56.771Z,1.85
2023-02-26T20:39:24.879Z,1.93
2023-02-26T20:41:52.741Z,1.83
2023-02-26T20:44:20.565Z,1.94
2023-02-26T20:46:48.568Z,1.91
2023-02-26T20:49:17.367Z,1.92
2023-02-26T20:51:45.530Z,1.91
2023-02-26T20:54:16.273Z,1.93
2023-02-26T20:56:45.275Z,1.92
2023-02-26T20:59:13.430Z,1.90
2023-02-26T21:01:41.490Z,1.91
2023-02-26T21:04:10.132Z,1.89
2023-02-26T21:06:38.376Z,1.92
2023-02-26T21:09:08.694Z,1.87
2023-02-26T21:11:38.777Z,1.82
2023-02-26T21:14:07.867Z,1.86
2023-02-26T21:16:36.175Z,1.78
2023-02-26T21:19:04.676Z,1.67
2023-02-26T21:21:32.814Z,1.67
2023-02-26T21:24:00.909Z,1.70
2023-02-26T21:26:28.803Z,1.72
2023-02-26T21:29:00.042Z,1.64
2023-02-26T21:31:28.201Z,1.55
2023-02-26T21:33:56.194Z,1.52
2023-02-26T21:36:24.140Z,1.56
2023-02-26T21:38:52.166Z,1.44
2023-02-26T21:41:20.413Z,1.41
2023-02-26T21:43:48.827Z,1.34
2023-02-26T21:46:18.680Z,1.33
2023-02-26T21:48:50.393Z,1.28
2023-02-26T21:51:21.379Z,1.23
2023-02-26T21:53:49.696Z,1.09
2023-02-26T21:56:17.598Z,1.09
2023-02-26T21:58:45.607Z,1.04
2023-02-26T22:01:13.625Z,0.97
2023-02-26T22:03:43.196Z,0.96
2023-02-26T22:06:11.029Z,0.87
2023-02-26T22:08:38.839Z,0.77
2023-02-26T22:11:06.810Z,0.72
2023-02-26T22:13:34.632Z,0.63
2023-02-26T22:16:02.520Z,0.65
2023-02-26T22:18:30.379Z,0.56
2023-02-26T22:20:59.801Z,0.50
2023-02-26T22:23:27.953Z,0.46
2023-02-26T22:25:55.789Z,0.58
2023-02-26T22:28:23.579Z,0.55
2023-02-26T22:30:51.866Z,0.52
2023-02-26T22:33:19.836Z,0.49
2023-02-26T22:35:47.709Z,0.59
2023-02-26T22:38:16.956Z,0.84
2023-02-26T22:40:44.955Z,0.69
2023-02-26T22:43:14.451Z,0.58
2023-02-26T22:45:42.615Z,0.76
2023-02-26T22:48:10.491Z,0.73
2023-02-26T22:50:38.464Z,0.74
2023-02-26T22:53:06.972Z,0.64
2023-02-26T22:55:36.164Z,0.71
2023-02-26T22:58:04.786Z,0.47
2023-02-26T23:00:32.615Z,0.50
2023-02-26T23:03:00.624Z,0.60
2023-02-26T23:05:28.546Z,0.47
2023-02-26T23:07:56.370Z,0.47
2023-02-26T23:10:24.200Z,0.39
2023-02-26T23:12:53.385Z,0.29
2023-02-26T23:15:21.386Z,0.34
2023-02-26T23:17:51.044Z,0.35
2023-02-26T23:20:19.133Z,0.42
2023-02-26T23:22:46.945Z,0.25
2023-02-26T23:25:14.763Z,0.16
2023-02-26T23:27:42.618Z,0.04
2023-02-26T23:30:13.638Z,-0.13
2023-02-26T23:32:41.691Z,-0.20
2023-02-26T23:35:10.263Z,-0.13
2023-02-26T23:37:38.123Z,-0.12
2023-02-26T23:40:07.673Z,-0.26
2023-02-26T23:42:35.608Z,-0.28
2023-02-26T23:45:03.600Z,-0.32
2023-02-26T23:47:32.851Z,-0.30
2023-02-26T23:50:00.666Z,-0.36
2023-02-26T23:52:28.555Z,-0.37
2023-02-26T23:54:57.442Z,-0.39
2023-02-26T23:57:25.894Z,-0.44
2023-02-26T23:59:53.754Z,-0.49
